Time;durP1;ratioP1;P1;durP2;ratioP2;P2;SDS_P1;SDS_P2;PMS_P1;PMS_P2;Temp;Humidity;BMP_temperature;BMP_pressure;BME280_temperature;BME280_humidity;BME280_pressure;Samples;Min_cycle;Max_cycle;Signal;HPM_P1;HPM_P2
2022/01/01 17:12:08;;;;;;;8.18;4.03;;;;;;;8.96;66.78;94498.44;5160455;27;20383;-78
2022/01/01 17:14:34;;;;;;;8.57;4.28;;;;;;;8.81;67.36;94503.94;5160567;27;20046;-79
2022/01/01 17:17:35;;;;;;;7.20;3.97;;;;;;;8.62;67.95;94518.00;5162073;27;20019;-77
2022/01/01 17:20:08;;;;;;;9.15;4.43;;;;;;;8.55;68.22;94528.19;5148366;27;20163;-76
2022/01/01 17:22:49;;;;;;;8.55;4.55;;;;;;;8.48;68.71;94525.09;5139972;22;20072;-79
2022/01/01 17:25:23;;;;;;;7.50;3.92;;;;;;;8.47;68.88;94531.47;5002005;28;20059;-80
2022/01/01 17:28:14;;;;;;;8.20;4.70;;;;;;;8.43;68.85;94530.47;5056644;28;20025;-80
2022/01/01 17:30:41;;;;;;;12.02;4.90;;;;;;;8.43;68.84;94531.25;4949247;28;361455;-80
2022/01/01 17:33:37;;;;;;;9.20;4.63;;;;;;;8.43;68.92;94519.84;4978523;28;20042;-80
2022/01/01 17:41:06;;;;;;;11.27;4.97;;;;;;;8.47;68.79;94542.09;5038201;28;20099;-80
2022/01/01 17:43:34;;;;;;;9.65;5.13;;;;;;;8.45;69.09;94523.00;5038077;28;20295;-80
2022/01/01 17:46:00;;;;;;;9.30;5.28;;;;;;;8.43;69.00;94535.78;5038193;28;20101;-80
2022/01/01 17:48:35;;;;;;;8.23;5.05;;;;;;;8.40;69.15;94545.06;5038160;28;20029;-80
2022/01/01 17:51:06;;;;;;;9.90;4.60;;;;;;;8.44;68.94;94553.28;5054504;28;20029;-80
2022/01/01 17:53:34;;;;;;;9.10;4.50;;;;;;;8.44;69.06;94547.97;5039493;28;20256;-80
2022/01/01 17:56:02;;;;;;;12.02;4.70;;;;;;;8.42;69.19;94555.44;5039654;28;20100;-80
2022/01/01 17:58:35;;;;;;;9.43;4.47;;;;;;;8.41;69.21;94559.19;5038232;28;20104;-79
2022/01/01 18:01:03;;;;;;;7.38;4.80;;;;;;;8.47;69.24;94546.59;5039258;28;20028;-79
2022/01/01 18:03:33;;;;;;;8.93;5.13;;;;;;;8.46;69.05;94580.34;5039354;28;20060;-79
2022/01/01 18:06:00;;;;;;;7.45;4.45;;;;;;;8.49;69.34;94560.41;5039063;28;20248;-79
2022/01/01 18:08:28;;;;;;;6.80;4.15;;;;;;;8.46;69.32;94556.44;5039355;28;20021;-80
2022/01/01 18:10:58;;;;;;;9.38;4.45;;;;;;;8.48;69.14;94564.94;5037963;28;20029;-79
2022/01/01 18:13:37;;;;;;;8.55;4.82;;;;;;;8.47;69.44;94563.38;5038872;28;20028;-79
2022/01/01 18:16:05;;;;;;;14.82;5.28;;;;;;;8.51;69.19;94569.69;5039098;28;20026;-78
2022/01/01 18:18:32;;;;;;;13.32;5.30;;;;;;;8.55;69.05;94568.06;5038855;28;20104;-79
2022/01/01 18:20:59;;;;;;;9.48;4.72;;;;;;;8.56;68.85;94576.81;5039038;28;20025;-78
2022/01/01 18:23:28;;;;;;;8.40;4.90;;;;;;;8.55;68.65;94562.75;5025841;28;20054;-79
2022/01/01 18:25:58;;;;;;;10.13;5.28;;;;;;;8.60;68.65;94578.63;5025609;28;20105;-79
2022/01/01 18:28:34;;;;;;;9.68;5.10;;;;;;;8.63;68.73;94588.69;5025804;28;20193;-78
2022/01/01 18:31:02;;;;;;;9.95;5.57;;;;;;;8.60;68.74;94586.59;5025594;28;20056;-78
2022/01/01 18:33:30;;;;;;;9.18;5.43;;;;;;;8.60;68.64;94589.25;5024513;28;20036;-78
2022/01/01 18:35:58;;;;;;;9.73;4.95;;;;;;;8.63;68.75;94591.34;5025777;28;20037;-79
2022/01/01 18:38:27;;;;;;;11.30;5.78;;;;;;;8.68;68.56;94590.50;5025220;28;20022;-79
2022/01/01 18:40:52;;;;;;;11.07;5.85;;;;;;;8.64;68.57;94594.78;5025287;28;20045;-79
2022/01/01 18:43:19;;;;;;;8.27;5.13;;;;;;;8.59;68.91;94593.00;5025347;28;20030;-80
2022/01/01 18:45:44;;;;;;;9.48;5.15;;;;;;;8.66;68.87;94590.00;5025295;28;20048;-79
2022/01/01 18:48:11;;;;;;;10.32;6.00;;;;;;;8.65;69.05;94593.72;5025244;28;20022;-79
2022/01/01 18:51:14;;;;;;;11.57;5.40;;;;;;;8.60;69.14;94599.88;5024043;28;20026;-79
2022/01/01 18:54:02;;;;;;;7.00;4.35;;;;;;;8.60;69.29;94601.75;5024234;28;20133;-79
2022/01/01 18:56:33;;;;;;;7.18;4.03;;;;;;;8.58;68.94;94598.56;5025384;28;20240;-79
2022/01/01 18:59:02;;;;;;;7.07;4.38;;;;;;;8.53;68.97;94610.06;5040439;28;20113;-79
2022/01/01 19:01:33;;;;;;;9.20;4.57;;;;;;;8.55;68.90;94607.13;5025094;28;20013;-80
2022/01/01 19:04:02;;;;;;;10.23;4.88;;;;;;;8.57;68.98;94608.44;5025179;28;20028;-79
2022/01/01 19:06:29;;;;;;;8.40;4.32;;;;;;;8.55;69.11;94607.13;5040331;28;20087;-80
2022/01/01 19:08:58;;;;;;;12.63;4.78;;;;;;;8.59;68.69;94614.25;5024873;28;20028;-79
2022/01/01 19:11:39;;;;;;;10.65;5.05;;;;;;;8.61;68.83;94595.38;5024950;28;20034;-80
2022/01/01 19:14:09;;;;;;;11.00;5.50;;;;;;;8.60;68.81;94605.19;5024884;28;20018;-79
2022/01/01 19:16:39;;;;;;;8.73;4.78;;;;;;;8.52;69.08;94603.16;5024777;28;20123;-79
2022/01/01 19:19:08;;;;;;;8.23;4.13;;;;;;;8.54;69.05;94601.00;5024435;28;20044;-79
2022/01/01 19:21:34;;;;;;;10.85;4.97;;;;;;;8.56;68.96;94603.38;5024716;28;20251;-79
2022/01/01 19:24:02;;;;;;;11.60;4.85;;;;;;;8.57;68.75;94605.75;5024725;28;20221;-79
2022/01/01 19:26:29;;;;;;;9.25;5.40;;;;;;;8.57;68.90;94611.09;5024644;28;20049;-79
2022/01/01 19:28:55;;;;;;;10.82;4.60;;;;;;;8.54;68.95;94621.47;5024579;28;20064;-79
2022/01/01 19:31:22;;;;;;;10.55;4.93;;;;;;;8.52;69.11;94616.44;5023380;28;20247;-80
2022/01/01 19:33:47;;;;;;;12.00;6.85;;;;;;;8.49;69.20;94621.50;5023343;28;20220;-80
2022/01/01 19:36:14;;;;;;;8.27;4.68;;;;;;;8.44;69.70;94628.44;5023215;28;20101;-79
2022/01/01 19:38:40;;;;;;;8.95;4.90;;;;;;;8.52;69.61;94632.38;5024399;28;20255;-79
2022/01/01 19:41:18;;;;;;;7.43;4.05;;;;;;;8.49;69.69;94624.97;5024043;28;20150;-79
2022/01/01 19:44:22;;;;;;;7.80;4.50;;;;;;;8.51;69.43;94619.38;5039427;28;20052;-79
2022/01/01 19:47:14;;;;;;;8.30;4.70;;;;;;;8.48;69.71;94627.91;5023250;28;20038;-78
2022/01/01 19:49:48;;;;;;;8.93;4.78;;;;;;;8.42;69.61;94619.19;5039413;28;20084;-78
2022/01/01 19:52:14;;;;;;;11.60;4.63;;;;;;;8.45;69.80;94623.94;5022893;28;20033;-77
2022/01/01 19:54:40;;;;;;;7.95;4.03;;;;;;;8.37;69.79;94621.88;5023922;28;20354;-78
2022/01/01 19:57:05;;;;;;;8.55;5.00;;;;;;;8.38;69.70;94607.50;5023722;28;20025;-78
2022/01/01 19:59:31;;;;;;;9.88;5.10;;;;;;;8.40;69.68;94608.03;5023969;28;20020;-78
2022/01/01 20:01:56;;;;;;;7.50;4.10;;;;;;;8.32;70.12;94606.75;5024252;28;20299;-78
2022/01/01 20:04:22;;;;;;;11.40;4.75;;;;;;;8.28;69.95;94597.75;5022704;28;20029;-78
2022/01/01 20:06:47;;;;;;;7.95;4.53;;;;;;;8.25;70.23;94601.00;5023736;28;20056;-78
2022/01/01 20:09:16;;;;;;;9.63;4.75;;;;;;;8.20;70.32;94615.13;5024005;28;20028;-78
2022/01/01 20:11:42;;;;;;;8.68;4.97;;;;;;;8.17;70.28;94613.00;5023666;28;20026;-77
2022/01/01 20:14:07;;;;;;;8.00;4.85;;;;;;;8.16;70.49;94618.59;5023681;28;20033;-78
2022/01/01 20:16:34;;;;;;;9.10;5.05;;;;;;;8.19;70.74;94604.78;5023848;28;20072;-78
2022/01/01 20:19:00;;;;;;;10.63;4.85;;;;;;;8.14;70.95;94632.16;5023678;28;20296;-78
2022/01/01 20:21:25;;;;;;;9.18;5.28;;;;;;;8.11;71.17;94624.75;5023642;28;20021;-78
2022/01/01 20:23:51;;;;;;;8.25;4.30;;;;;;;8.09;71.10;94600.34;5038656;28;20076;-78
2022/01/01 20:26:17;;;;;;;6.93;4.18;;;;;;;8.06;71.40;94603.56;5023659;28;20018;-78
2022/01/01 20:28:43;;;;;;;7.00;4.47;;;;;;;8.01;71.54;94598.28;5023285;28;20212;-78
2022/01/01 20:31:08;;;;;;;10.15;5.43;;;;;;;8.03;71.63;94604.88;5023294;28;20279;-78
2022/01/01 20:33:34;;;;;;;9.13;4.80;;;;;;;8.00;71.64;94602.81;5023525;28;20017;-78
2022/01/01 20:35:59;;;;;;;8.85;4.70;;;;;;;7.97;71.83;94608.66;5038952;28;20061;-78
2022/01/01 20:38:25;;;;;;;8.15;4.53;;;;;;;8.02;71.51;94615.81;5023208;28;20096;-78
2022/01/01 20:40:52;;;;;;;9.73;5.13;;;;;;;8.00;71.73;94617.94;5023081;28;20025;-78
2022/01/01 20:43:19;;;;;;;7.93;4.65;;;;;;;8.00;71.84;94623.25;5023227;28;20206;-78
2022/01/01 20:45:44;;;;;;;8.13;4.93;;;;;;;8.03;71.78;94620.03;5038277;28;20026;-78
2022/01/01 20:48:09;;;;;;;8.40;5.30;;;;;;;8.01;72.09;94628.25;5023157;28;20220;-78
2022/01/01 20:50:35;;;;;;;8.77;5.35;;;;;;;7.98;72.26;94628.06;5023060;28;20030;-78
2022/01/01 20:53:01;;;;;;;11.77;5.25;;;;;;;7.99;72.11;94614.47;5023280;28;20093;-78
2022/01/01 20:55:26;;;;;;;8.48;4.70;;;;;;;7.99;72.01;94613.69;5022834;28;20386;-78
2022/01/01 20:57:55;;;;;;;8.80;4.95;;;;;;;8.02;71.91;94615.81;5038202;28;20030;-78
2022/01/01 21:00:21;;;;;;;9.07;5.00;;;;;;;8.00;72.13;94604.69;5023099;28;20032;-78
2022/01/01 21:02:49;;;;;;;8.10;5.28;;;;;;;8.06;71.78;94616.84;5022938;28;20275;-78
2022/01/01 21:05:20;;;;;;;10.35;5.35;;;;;;;8.10;71.59;94611.75;5022971;28;20335;-78
2022/01/01 21:07:52;;;;;;;6.97;5.00;;;;;;;8.11;71.39;94606.16;5022659;28;20331;-78
2022/01/01 21:10:18;;;;;;;7.70;4.93;;;;;;;8.12;71.33;94594.47;5022919;28;20040;-78
2022/01/01 21:12:43;;;;;;;10.05;5.03;;;;;;;8.16;71.54;94605.31;5022969;28;20029;-79
2022/01/01 21:15:10;;;;;;;8.65;5.15;;;;;;;8.10;71.80;94601.94;5038149;28;20029;-78
2022/01/01 21:17:37;;;;;;;9.98;6.05;;;;;;;8.13;71.68;94617.28;5022877;28;20048;-78
2022/01/01 21:20:07;;;;;;;10.43;5.43;;;;;;;8.16;71.53;94624.72;5022856;28;20260;-78
2022/01/01 21:22:34;;;;;;;8.07;5.30;;;;;;;8.12;71.64;94634.31;5022838;28;20046;-78
2022/01/01 21:25:00;;;;;;;8.77;5.07;;;;;;;8.08;71.80;94625.31;5038223;28;20030;-78
2022/01/01 21:27:25;;;;;;;10.63;5.53;;;;;;;8.07;71.60;94630.91;5022587;28;20047;-78
2022/01/01 21:29:51;;;;;;;11.75;5.72;;;;;;;8.05;72.14;94636.47;5022545;28;20216;-77
2022/01/01 21:32:18;;;;;;;8.38;4.97;;;;;;;8.07;71.80;94629.03;5022777;28;20251;-78
2022/01/01 21:34:44;;;;;;;9.05;5.18;;;;;;;8.10;71.75;94625.00;5022581;28;20065;-78
2022/01/01 21:37:11;;;;;;;11.65;5.65;;;;;;;8.11;72.10;94638.03;5022755;28;20224;-78
2022/01/01 21:39:38;;;;;;;12.93;5.28;;;;;;;8.20;71.74;94647.00;5022627;28;20030;-78
2022/01/01 21:42:04;;;;;;;11.07;5.68;;;;;;;8.09;71.89;94642.03;5022629;28;20092;-78
2022/01/01 21:44:30;;;;;;;8.85;5.20;;;;;;;8.10;71.93;94639.09;5022695;28;20220;-78
2022/01/01 21:46:55;;;;;;;8.90;5.50;;;;;;;8.08;71.78;94646.56;5022574;28;20025;-78
2022/01/01 21:49:21;;;;;;;10.43;5.47;;;;;;;8.09;71.74;94644.69;5022653;28;20029;-78
2022/01/01 21:51:46;;;;;;;9.32;5.55;;;;;;;8.06;71.60;94646.03;5022314;28;20038;-79
2022/01/01 21:54:12;;;;;;;11.25;5.50;;;;;;;8.10;71.59;94655.03;5021282;28;20026;-78
2022/01/01 21:56:37;;;;;;;10.77;4.95;;;;;;;8.11;71.50;94655.81;5022556;28;20021;-79
2022/01/01 21:59:03;;;;;;;7.95;4.63;;;;;;;8.18;71.07;94664.25;5026369;28;20256;-78
2022/01/01 22:01:29;;;;;;;7.97;4.85;;;;;;;8.20;71.05;94647.00;5041258;28;20056;-77
2022/01/01 22:03:55;;;;;;;8.57;4.65;;;;;;;8.18;71.01;94648.31;5041391;28;20064;-77
2022/01/01 22:06:21;;;;;;;7.85;4.45;;;;;;;8.16;71.14;94659.22;5026122;28;20029;-78
2022/01/01 22:08:46;;;;;;;8.57;4.97;;;;;;;8.17;71.24;94650.19;5025747;28;20088;-78
2022/01/01 22:11:12;;;;;;;10.52;5.35;;;;;;;8.18;70.92;94651.78;5025932;28;20026;-77
2022/01/01 22:13:37;;;;;;;10.65;4.35;;;;;;;8.17;71.18;94652.84;5025993;28;20060;-78
2022/01/01 22:16:04;;;;;;;12.50;4.53;;;;;;;8.19;70.95;94657.88;5026026;28;20251;-78
2022/01/01 22:18:29;;;;;;;8.35;4.82;;;;;;;8.25;70.83;94667.38;5024752;28;20071;-78
2022/01/01 22:20:55;;;;;;;8.38;4.90;;;;;;;8.25;70.64;94664.72;5025890;28;20013;-79
2022/01/01 22:23:20;;;;;;;9.73;4.38;;;;;;;8.26;70.63;94665.53;5025670;28;20040;-78
2022/01/01 22:25:46;;;;;;;7.32;4.00;;;;;;;8.32;70.25;94665.19;5025618;28;20017;-78
2022/01/01 22:28:11;;;;;;;7.93;4.80;;;;;;;8.35;70.80;94655.91;5025711;28;20045;-79
2022/01/01 22:30:38;;;;;;;10.57;4.82;;;;;;;8.37;70.11;94664.38;5025495;28;20361;-79
2022/01/01 22:33:05;;;;;;;9.23;4.65;;;;;;;8.38;70.17;94652.66;5025065;28;20193;-85
2022/01/01 22:35:30;;;;;;;8.45;4.63;;;;;;;8.40;70.04;94658.50;5025868;28;20025;-85
2022/01/01 22:37:56;;;;;;;7.75;4.30;;;;;;;8.41;69.85;94652.94;5041020;28;20026;-85
2022/01/01 22:40:21;;;;;;;8.68;4.82;;;;;;;8.42;69.75;94659.03;5025953;28;20029;-87
2022/01/01 22:42:47;;;;;;;8.95;4.78;;;;;;;8.35;70.14;94662.00;5026301;28;20021;-88
2022/01/01 22:45:13;;;;;;;7.93;4.53;;;;;;;8.38;70.18;94665.94;5026556;28;20025;-88
2022/01/01 22:47:40;;;;;;;8.75;5.18;;;;;;;8.37;70.10;94653.75;5025886;28;20088;-84
2022/01/01 22:50:06;;;;;;;8.85;5.47;;;;;;;8.43;70.26;94673.91;5025244;28;20357;-86
2022/01/01 22:52:32;;;;;;;8.93;5.13;;;;;;;8.37;70.32;94651.09;5025449;28;20033;-85
2022/01/01 22:54:57;;;;;;;10.32;5.53;;;;;;;8.43;70.35;94665.94;5040622;28;20026;-87
2022/01/01 22:57:23;;;;;;;8.82;5.40;;;;;;;8.49;70.12;94669.34;5025281;28;20057;-84
2022/01/01 22:59:49;;;;;;;8.27;5.03;;;;;;;8.45;70.52;94666.47;5025784;28;20117;-87
2022/01/01 23:02:15;;;;;;;9.68;5.00;;;;;;;8.51;69.95;94672.50;5025398;28;20021;-88
2022/01/01 23:04:41;;;;;;;8.63;5.20;;;;;;;8.54;70.00;94671.97;5025973;28;20025;-88
2022/01/01 23:07:06;;;;;;;9.18;5.45;;;;;;;8.62;69.96;94660.72;5024819;28;20025;-88
2022/01/01 23:09:32;;;;;;;7.28;4.72;;;;;;;8.63;69.89;94667.63;5023028;28;20025;-88
2022/01/01 23:11:58;;;;;;;10.30;5.57;;;;;;;8.72;70.98;94667.81;5023136;28;20324;-78
2022/01/01 23:14:25;;;;;;;8.30;5.32;;;;;;;8.87;70.04;94664.97;5023070;28;20025;-77
2022/01/01 23:16:56;;;;;;;10.25;5.85;;;;;;;9.01;69.83;94655.25;5023795;28;20072;-77
2022/01/01 23:19:22;;;;;;;10.73;6.20;;;;;;;9.02;69.02;94664.81;5024729;28;20024;-78
2022/01/01 23:21:49;;;;;;;9.48;5.47;;;;;;;9.03;68.72;94666.38;5040880;28;20018;-89
2022/01/01 23:24:17;;;;;;;10.98;5.95;;;;;;;8.95;69.01;94659.03;5024955;28;20065;-88
2022/01/01 23:26:50;;;;;;;9.93;6.30;;;;;;;8.98;69.20;94658.50;5041090;28;20018;-90
2022/01/01 23:29:20;;;;;;;10.30;5.93;;;;;;;8.93;69.33;94660.41;5025452;28;20037;-89
2022/01/01 23:31:49;;;;;;;9.98;5.65;;;;;;;8.87;69.74;94654.34;5040465;28;20137;-89
2022/01/01 23:34:25;;;;;;;11.30;6.30;;;;;;;8.89;70.13;94670.00;5025425;28;20017;-89
2022/01/01 23:36:56;;;;;;;12.40;7.75;;;;;;;8.86;69.92;94671.38;5024108;28;20026;-90
2022/01/01 23:39:24;;;;;;;13.57;6.40;;;;;;;8.89;69.56;94670.00;5023850;28;20032;-89
2022/01/01 23:41:55;;;;;;;10.85;6.68;;;;;;;8.91;69.68;94658.03;5024981;28;20121;-88
2022/01/01 23:44:21;;;;;;;10.52;6.00;;;;;;;8.85;69.71;94669.78;5025078;28;20083;-89
2022/01/01 23:46:58;;;;;;;8.50;5.80;;;;;;;8.82;69.82;94660.50;5025043;28;20045;-88
2022/01/01 23:49:24;;;;;;;10.73;6.32;;;;;;;8.87;69.76;94664.97;5025180;28;20125;-89
2022/01/01 23:51:56;;;;;;;8.65;5.63;;;;;;;8.89;69.57;94660.16;5025027;28;20038;-89
2022/01/01 23:54:33;;;;;;;10.80;6.40;;;;;;;8.82;69.70;94675.69;5024557;28;20076;-89
2022/01/01 23:57:02;;;;;;;10.75;5.70;;;;;;;8.83;69.67;94677.25;5025092;28;20159;-88
2022/01/01 23:59:35;;;;;;;10.02;5.40;;;;;;;8.81;69.75;94676.72;5024889;28;20028;-87
